sensor_id;sensor_type;location;lat;lon;timestamp;temperature;humidity
78876;DHT22;68253;52.506;5.486;2023-03-14T00:02:10;18.90;59.80
78876;DHT22;68253;52.506;5.486;2023-03-14T00:04:36;18.90;59.80
78876;DHT22;68253;52.506;5.486;2023-03-14T00:07:03;18.80;59.80
78876;DHT22;68253;52.506;5.486;2023-03-14T00:09:29;18.80;59.80
78876;DHT22;68253;52.506;5.486;2023-03-14T00:11:56;18.80;59.70
78876;DHT22;68253;52.506;5.486;2023-03-14T00:14:23;18.80;59.70
78876;DHT22;68253;52.506;5.486;2023-03-14T00:16:49;18.80;59.70
78876;DHT22;68253;52.506;5.486;2023-03-14T00:19:15;18.80;59.70
78876;DHT22;68253;52.506;5.486;2023-03-14T00:21:41;18.80;59.70
78876;DHT22;68253;52.506;5.486;2023-03-14T00:24:08;18.70;59.70
78876;DHT22;68253;52.506;5.486;2023-03-14T00:26:34;18.70;59.70
78876;DHT22;68253;52.506;5.486;2023-03-14T00:29:00;18.70;59.70
78876;DHT22;68253;52.506;5.486;2023-03-14T00:31:26;18.70;59.70
78876;DHT22;68253;52.506;5.486;2023-03-14T00:33:53;18.70;59.70
78876;DHT22;68253;52.506;5.486;2023-03-14T00:36:19;18.70;59.70
78876;DHT22;68253;52.506;5.486;2023-03-14T00:38:50;18.70;59.70
78876;DHT22;68253;52.506;5.486;2023-03-14T00:41:20;18.60;59.60
78876;DHT22;68253;52.506;5.486;2023-03-14T00:43:48;18.60;59.60
78876;DHT22;68253;52.506;5.486;2023-03-14T00:46:14;18.60;59.60
78876;DHT22;68253;52.506;5.486;2023-03-14T00:48:44;18.60;59.60
78876;DHT22;68253;52.506;5.486;2023-03-14T00:51:11;18.60;59.60
78876;DHT22;68253;52.506;5.486;2023-03-14T00:53:43;18.60;59.60
78876;DHT22;68253;52.506;5.486;2023-03-14T00:56:11;18.60;59.60
78876;DHT22;68253;52.506;5.486;2023-03-14T00:58:38;18.60;59.60
78876;DHT22;68253;52.506;5.486;2023-03-14T01:01:10;18.50;59.60
78876;DHT22;68253;52.506;5.486;2023-03-14T01:03:36;18.60;59.50
78876;DHT22;68253;52.506;5.486;2023-03-14T01:06:16;18.60;59.60
78876;DHT22;68253;52.506;5.486;2023-03-14T01:08:43;18.60;59.50
78876;DHT22;68253;52.506;5.486;2023-03-14T01:11:12;18.50;59.50
78876;DHT22;68253;52.506;5.486;2023-03-14T01:13:39;18.50;59.50
78876;DHT22;68253;52.506;5.486;2023-03-14T01:16:07;18.50;59.50
78876;DHT22;68253;52.506;5.486;2023-03-14T01:18:38;18.50;59.50
78876;DHT22;68253;52.506;5.486;2023-03-14T01:21:15;18.50;59.50
78876;DHT22;68253;52.506;5.486;2023-03-14T01:23:42;18.50;59.50
78876;DHT22;68253;52.506;5.486;2023-03-14T01:26:10;18.50;59.50
78876;DHT22;68253;52.506;5.486;2023-03-14T01:28:37;18.50;59.50
78876;DHT22;68253;52.506;5.486;2023-03-14T01:31:05;18.50;59.50
78876;DHT22;68253;52.506;5.486;2023-03-14T01:33:32;18.50;59.50
78876;DHT22;68253;52.506;5.486;2023-03-14T01:35:58;18.40;59.40
78876;DHT22;68253;52.506;5.486;2023-03-14T01:38:25;18.40;59.40
78876;DHT22;68253;52.506;5.486;2023-03-14T01:40:51;18.40;59.40
78876;DHT22;68253;52.506;5.486;2023-03-14T01:43:19;18.40;59.40
78876;DHT22;68253;52.506;5.486;2023-03-14T01:51:28;18.50;59.30
78876;DHT22;68253;52.506;5.486;2023-03-14T01:54:04;18.40;59.40
78876;DHT22;68253;52.506;5.486;2023-03-14T01:56:32;18.40;59.40
78876;DHT22;68253;52.506;5.486;2023-03-14T01:58:59;18.40;59.40
78876;DHT22;68253;52.506;5.486;2023-03-14T02:01:26;18.40;59.40
78876;DHT22;68253;52.506;5.486;2023-03-14T02:03:55;18.40;59.40
78876;DHT22;68253;52.506;5.486;2023-03-14T02:06:27;18.40;59.30
78876;DHT22;68253;52.506;5.486;2023-03-14T02:08:59;18.40;59.30
78876;DHT22;68253;52.506;5.486;2023-03-14T02:11:29;18.40;59.30
78876;DHT22;68253;52.506;5.486;2023-03-14T02:14:05;18.40;59.30
78876;DHT22;68253;52.506;5.486;2023-03-14T02:16:53;18.30;59.30
78876;DHT22;68253;52.506;5.486;2023-03-14T02:19:49;18.30;59.30
78876;DHT22;68253;52.506;5.486;2023-03-14T02:22:31;18.30;59.40
78876;DHT22;68253;52.506;5.486;2023-03-14T02:27:43;18.30;59.30
78876;DHT22;68253;52.506;5.486;2023-03-14T02:30:13;18.30;59.30
78876;DHT22;68253;52.506;5.486;2023-03-14T02:32:45;18.30;59.30
78876;DHT22;68253;52.506;5.486;2023-03-14T02:35:18;18.30;59.30
78876;DHT22;68253;52.506;5.486;2023-03-14T02:37:53;18.30;59.30
78876;DHT22;68253;52.506;5.486;2023-03-14T02:40:24;18.30;59.30
78876;DHT22;68253;52.506;5.486;2023-03-14T02:42:52;18.30;59.30
78876;DHT22;68253;52.506;5.486;2023-03-14T02:47:54;18.30;59.30
78876;DHT22;68253;52.506;5.486;2023-03-14T02:50:24;18.30;59.30
78876;DHT22;68253;52.506;5.486;2023-03-14T02:52:54;18.30;59.20
78876;DHT22;68253;52.506;5.486;2023-03-14T02:55:21;18.30;59.20
78876;DHT22;68253;52.506;5.486;2023-03-14T02:57:48;18.30;59.20
78876;DHT22;68253;52.506;5.486;2023-03-14T03:00:14;18.30;59.20
78876;DHT22;68253;52.506;5.486;2023-03-14T03:02:41;18.30;59.20
78876;DHT22;68253;52.506;5.486;2023-03-14T03:05:07;18.30;59.20
78876;DHT22;68253;52.506;5.486;2023-03-14T03:07:33;18.30;59.20
78876;DHT22;68253;52.506;5.486;2023-03-14T03:09:59;18.30;59.10
78876;DHT22;68253;52.506;5.486;2023-03-14T03:12:26;18.30;59.20
78876;DHT22;68253;52.506;5.486;2023-03-14T03:14:52;18.20;59.10
78876;DHT22;68253;52.506;5.486;2023-03-14T03:17:18;18.20;59.10
78876;DHT22;68253;52.506;5.486;2023-03-14T03:19:44;18.30;59.10
78876;DHT22;68253;52.506;5.486;2023-03-14T03:22:10;18.30;59.10
78876;DHT22;68253;52.506;5.486;2023-03-14T03:24:40;18.20;59.10
78876;DHT22;68253;52.506;5.486;2023-03-14T03:27:06;18.20;59.10
78876;DHT22;68253;52.506;5.486;2023-03-14T03:29:32;18.20;59.10
78876;DHT22;68253;52.506;5.486;2023-03-14T03:31:59;18.20;59.10
78876;DHT22;68253;52.506;5.486;2023-03-14T03:34:27;18.20;59.00
78876;DHT22;68253;52.506;5.486;2023-03-14T03:36:58;18.20;59.00
78876;DHT22;68253;52.506;5.486;2023-03-14T03:39:25;18.20;59.00
78876;DHT22;68253;52.506;5.486;2023-03-14T03:41:52;18.20;59.00
78876;DHT22;68253;52.506;5.486;2023-03-14T03:44:19;18.20;59.00
78876;DHT22;68253;52.506;5.486;2023-03-14T03:46:45;18.20;59.00
78876;DHT22;68253;52.506;5.486;2023-03-14T03:49:11;18.20;59.00
78876;DHT22;68253;52.506;5.486;2023-03-14T03:51:37;18.20;59.00
78876;DHT22;68253;52.506;5.486;2023-03-14T03:54:05;18.20;59.00
78876;DHT22;68253;52.506;5.486;2023-03-14T03:56:33;18.10;59.00
78876;DHT22;68253;52.506;5.486;2023-03-14T03:58:59;18.10;59.00
78876;DHT22;68253;52.506;5.486;2023-03-14T04:01:26;18.10;59.00
78876;DHT22;68253;52.506;5.486;2023-03-14T04:03:55;18.10;59.00
78876;DHT22;68253;52.506;5.486;2023-03-14T04:06:21;18.10;59.00
78876;DHT22;68253;52.506;5.486;2023-03-14T04:08:49;18.10;58.90
78876;DHT22;68253;52.506;5.486;2023-03-14T04:11:27;18.10;59.00
78876;DHT22;68253;52.506;5.486;2023-03-14T04:14:00;18.10;59.00
78876;DHT22;68253;52.506;5.486;2023-03-14T04:16:27;18.10;58.90
78876;DHT22;68253;52.506;5.486;2023-03-14T04:19:02;18.10;59.00
78876;DHT22;68253;52.506;5.486;2023-03-14T04:21:28;18.10;58.90
78876;DHT22;68253;52.506;5.486;2023-03-14T04:23:57;18.10;58.90
78876;DHT22;68253;52.506;5.486;2023-03-14T04:26:27;18.10;58.90
78876;DHT22;68253;52.506;5.486;2023-03-14T04:28:53;18.10;58.90
78876;DHT22;68253;52.506;5.486;2023-03-14T04:31:21;18.10;58.90
78876;DHT22;68253;52.506;5.486;2023-03-14T04:33:48;18.10;58.90
78876;DHT22;68253;52.506;5.486;2023-03-14T04:36:18;18.10;58.90
78876;DHT22;68253;52.506;5.486;2023-03-14T04:38:45;18.10;58.90
78876;DHT22;68253;52.506;5.486;2023-03-14T04:41:13;18.10;58.80
78876;DHT22;68253;52.506;5.486;2023-03-14T04:43:39;18.10;58.80
78876;DHT22;68253;52.506;5.486;2023-03-14T04:46:08;18.10;58.80
78876;DHT22;68253;52.506;5.486;2023-03-14T04:48:34;18.10;58.80
78876;DHT22;68253;52.506;5.486;2023-03-14T04:51:01;18.10;58.80
78876;DHT22;68253;52.506;5.486;2023-03-14T04:53:31;18.10;58.80
78876;DHT22;68253;52.506;5.486;2023-03-14T04:55:58;18.00;58.80
78876;DHT22;68253;52.506;5.486;2023-03-14T04:58:31;18.00;58.70
78876;DHT22;68253;52.506;5.486;2023-03-14T05:01:03;18.00;58.70
78876;DHT22;68253;52.506;5.486;2023-03-14T05:03:41;18.00;58.70
78876;DHT22;68253;52.506;5.486;2023-03-14T05:06:22;18.00;58.70
78876;DHT22;68253;52.506;5.486;2023-03-14T05:09:12;18.00;58.70
78876;DHT22;68253;52.506;5.486;2023-03-14T05:11:58;18.00;58.70
78876;DHT22;68253;52.506;5.486;2023-03-14T05:14:43;18.00;58.70
78876;DHT22;68253;52.506;5.486;2023-03-14T05:17:28;18.00;58.70
78876;DHT22;68253;52.506;5.486;2023-03-14T05:20:23;18.00;58.70
78876;DHT22;68253;52.506;5.486;2023-03-14T05:23:09;18.00;58.70
78876;DHT22;68253;52.506;5.486;2023-03-14T05:25:54;18.00;58.70
78876;DHT22;68253;52.506;5.486;2023-03-14T05:28:47;18.00;58.70
78876;DHT22;68253;52.506;5.486;2023-03-14T05:31:28;18.00;58.70
78876;DHT22;68253;52.506;5.486;2023-03-14T05:34:07;18.00;58.70
78876;DHT22;68253;52.506;5.486;2023-03-14T05:36:48;18.00;58.70
78876;DHT22;68253;52.506;5.486;2023-03-14T05:39:40;18.00;58.70
78876;DHT22;68253;52.506;5.486;2023-03-14T05:42:21;18.00;58.70
78876;DHT22;68253;52.506;5.486;2023-03-14T05:45:07;18.00;58.70
78876;DHT22;68253;52.506;5.486;2023-03-14T05:47:48;17.90;58.70
78876;DHT22;68253;52.506;5.486;2023-03-14T05:50:35;17.90;58.70
78876;DHT22;68253;52.506;5.486;2023-03-14T05:53:25;17.90;58.70
78876;DHT22;68253;52.506;5.486;2023-03-14T05:56:10;17.90;58.70
78876;DHT22;68253;52.506;5.486;2023-03-14T05:59:06;17.90;58.70
78876;DHT22;68253;52.506;5.486;2023-03-14T06:01:48;17.80;58.70
78876;DHT22;68253;52.506;5.486;2023-03-14T06:04:18;17.80;58.70
78876;DHT22;68253;52.506;5.486;2023-03-14T06:06:49;17.80;58.70
78876;DHT22;68253;52.506;5.486;2023-03-14T06:09:16;17.90;58.70
78876;DHT22;68253;52.506;5.486;2023-03-14T06:11:45;17.80;58.60
78876;DHT22;68253;52.506;5.486;2023-03-14T06:14:12;17.80;58.60
78876;DHT22;68253;52.506;5.486;2023-03-14T06:16:42;17.80;58.60
78876;DHT22;68253;52.506;5.486;2023-03-14T06:19:08;17.90;58.60
78876;DHT22;68253;52.506;5.486;2023-03-14T06:21:36;17.80;58.60
78876;DHT22;68253;52.506;5.486;2023-03-14T06:24:02;17.80;58.60
78876;DHT22;68253;52.506;5.486;2023-03-14T06:26:32;17.80;58.60
78876;DHT22;68253;52.506;5.486;2023-03-14T06:28:58;17.80;58.60
78876;DHT22;68253;52.506;5.486;2023-03-14T06:31:30;17.80;58.70
78876;DHT22;68253;52.506;5.486;2023-03-14T06:34:00;17.80;58.60
78876;DHT22;68253;52.506;5.486;2023-03-14T06:36:30;17.80;58.70
78876;DHT22;68253;52.506;5.486;2023-03-14T06:38:57;17.80;58.70
78876;DHT22;68253;52.506;5.486;2023-03-14T06:41:23;17.80;58.70
78876;DHT22;68253;52.506;5.486;2023-03-14T06:43:52;17.80;58.70
78876;DHT22;68253;52.506;5.486;2023-03-14T06:46:20;17.80;58.70
78876;DHT22;68253;52.506;5.486;2023-03-14T06:48:46;17.80;58.70
78876;DHT22;68253;52.506;5.486;2023-03-14T06:51:12;17.80;58.70
78876;DHT22;68253;52.506;5.486;2023-03-14T06:53:38;17.80;58.70
78876;DHT22;68253;52.506;5.486;2023-03-14T06:56:06;17.80;58.70
78876;DHT22;68253;52.506;5.486;2023-03-14T06:58:33;17.70;58.70
78876;DHT22;68253;52.506;5.486;2023-03-14T07:01:01;17.70;58.70
78876;DHT22;68253;52.506;5.486;2023-03-14T07:03:33;17.70;58.70
78876;DHT22;68253;52.506;5.486;2023-03-14T07:06:00;17.70;58.70
78876;DHT22;68253;52.506;5.486;2023-03-14T07:08:26;17.60;58.70
78876;DHT22;68253;52.506;5.486;2023-03-14T07:10:52;17.60;58.80
78876;DHT22;68253;52.506;5.486;2023-03-14T07:13:18;17.60;58.80
78876;DHT22;68253;52.506;5.486;2023-03-14T07:16:10;17.60;58.80
78876;DHT22;68253;52.506;5.486;2023-03-14T07:18:37;17.60;58.80
78876;DHT22;68253;52.506;5.486;2023-03-14T07:21:06;17.60;58.80
78876;DHT22;68253;52.506;5.486;2023-03-14T07:23:33;17.60;58.80
78876;DHT22;68253;52.506;5.486;2023-03-14T07:25:59;17.60;58.80
78876;DHT22;68253;52.506;5.486;2023-03-14T07:28:26;17.60;58.80
78876;DHT22;68253;52.506;5.486;2023-03-14T07:31:00;17.60;58.90
78876;DHT22;68253;52.506;5.486;2023-03-14T07:33:31;17.60;58.80
78876;DHT22;68253;52.506;5.486;2023-03-14T07:35:58;17.60;58.80
78876;DHT22;68253;52.506;5.486;2023-03-14T07:38:24;17.60;58.90
78876;DHT22;68253;52.506;5.486;2023-03-14T07:41:09;17.50;58.80
78876;DHT22;68253;52.506;5.486;2023-03-14T07:43:41;17.50;58.80
78876;DHT22;68253;52.506;5.486;2023-03-14T07:46:07;17.50;58.80
78876;DHT22;68253;52.506;5.486;2023-03-14T07:48:33;17.50;58.80
78876;DHT22;68253;52.506;5.486;2023-03-14T07:50:59;17.50;58.90
78876;DHT22;68253;52.506;5.486;2023-03-14T07:53:26;17.50;58.90
78876;DHT22;68253;52.506;5.486;2023-03-14T07:55:53;17.50;58.90
78876;DHT22;68253;52.506;5.486;2023-03-14T07:58:20;17.50;58.90
78876;DHT22;68253;52.506;5.486;2023-03-14T08:00:50;17.50;58.90
78876;DHT22;68253;52.506;5.486;2023-03-14T08:03:17;17.50;58.90
78876;DHT22;68253;52.506;5.486;2023-03-14T08:05:45;17.50;58.90
78876;DHT22;68253;52.506;5.486;2023-03-14T08:08:12;17.50;58.90
78876;DHT22;68253;52.506;5.486;2023-03-14T08:10:38;17.50;58.90
78876;DHT22;68253;52.506;5.486;2023-03-14T08:13:04;17.50;58.90
78876;DHT22;68253;52.506;5.486;2023-03-14T08:15:31;17.50;58.90
78876;DHT22;68253;52.506;5.486;2023-03-14T08:17:57;17.50;58.90
78876;DHT22;68253;52.506;5.486;2023-03-14T08:20:26;17.50;58.90
78876;DHT22;68253;52.506;5.486;2023-03-14T08:22:56;17.50;58.90
78876;DHT22;68253;52.506;5.486;2023-03-14T08:25:22;17.50;58.90
78876;DHT22;68253;52.506;5.486;2023-03-14T08:27:48;17.50;58.90
78876;DHT22;68253;52.506;5.486;2023-03-14T08:30:15;17.50;58.90
78876;DHT22;68253;52.506;5.486;2023-03-14T08:32:42;17.60;58.80
78876;DHT22;68253;52.506;5.486;2023-03-14T08:35:09;17.80;58.70
78876;DHT22;68253;52.506;5.486;2023-03-14T08:37:36;17.80;58.60
78876;DHT22;68253;52.506;5.486;2023-03-14T08:40:03;18.00;58.50
78876;DHT22;68253;52.506;5.486;2023-03-14T08:42:36;18.00;58.40
78876;DHT22;68253;52.506;5.486;2023-03-14T08:45:02;18.10;58.40
78876;DHT22;68253;52.506;5.486;2023-03-14T08:47:29;18.20;58.40
78876;DHT22;68253;52.506;5.486;2023-03-14T08:49:55;18.30;58.40
78876;DHT22;68253;52.506;5.486;2023-03-14T08:52:21;18.40;58.40
78876;DHT22;68253;52.506;5.486;2023-03-14T08:54:47;18.50;58.40
78876;DHT22;68253;52.506;5.486;2023-03-14T08:57:13;18.50;58.40
78876;DHT22;68253;52.506;5.486;2023-03-14T08:59:39;18.60;58.40
78876;DHT22;68253;52.506;5.486;2023-03-14T09:02:08;18.70;58.40
78876;DHT22;68253;52.506;5.486;2023-03-14T09:04:34;18.80;58.30
78876;DHT22;68253;52.506;5.486;2023-03-14T09:07:00;18.90;58.30
78876;DHT22;68253;52.506;5.486;2023-03-14T09:09:26;18.90;58.30
78876;DHT22;68253;52.506;5.486;2023-03-14T09:11:53;19.00;58.30
78876;DHT22;68253;52.506;5.486;2023-03-14T09:14:19;19.00;58.30
78876;DHT22;68253;52.506;5.486;2023-03-14T09:16:45;19.10;58.30
78876;DHT22;68253;52.506;5.486;2023-03-14T09:19:11;19.10;58.30
78876;DHT22;68253;52.506;5.486;2023-03-14T09:21:37;19.20;58.30
78876;DHT22;68253;52.506;5.486;2023-03-14T09:24:05;19.30;58.30
78876;DHT22;68253;52.506;5.486;2023-03-14T09:26:31;19.30;58.30
78876;DHT22;68253;52.506;5.486;2023-03-14T09:28:57;19.40;58.30
78876;DHT22;68253;52.506;5.486;2023-03-14T09:31:23;19.40;58.30
78876;DHT22;68253;52.506;5.486;2023-03-14T09:33:49;19.50;58.30
78876;DHT22;68253;52.506;5.486;2023-03-14T09:36:16;19.50;58.30
78876;DHT22;68253;52.506;5.486;2023-03-14T09:38:42;19.50;58.20
78876;DHT22;68253;52.506;5.486;2023-03-14T09:41:18;19.60;58.30
78876;DHT22;68253;52.506;5.486;2023-03-14T09:43:48;19.70;58.30
78876;DHT22;68253;52.506;5.486;2023-03-14T09:46:17;19.70;58.30
78876;DHT22;68253;52.506;5.486;2023-03-14T09:48:44;19.70;58.30
78876;DHT22;68253;52.506;5.486;2023-03-14T09:51:17;19.70;58.30
78876;DHT22;68253;52.506;5.486;2023-03-14T09:53:46;19.70;58.30
78876;DHT22;68253;52.506;5.486;2023-03-14T09:56:31;19.70;58.30
78876;DHT22;68253;52.506;5.486;2023-03-14T09:59:03;19.80;58.30
78876;DHT22;68253;52.506;5.486;2023-03-14T10:01:32;19.80;58.30
78876;DHT22;68253;52.506;5.486;2023-03-14T10:04:15;19.90;58.30
78876;DHT22;68253;52.506;5.486;2023-03-14T10:06:43;19.90;58.30
78876;DHT22;68253;52.506;5.486;2023-03-14T10:09:29;19.90;58.30
78876;DHT22;68253;52.506;5.486;2023-03-14T10:11:57;19.90;58.30
78876;DHT22;68253;52.506;5.486;2023-03-14T10:14:37;19.90;58.30
78876;DHT22;68253;52.506;5.486;2023-03-14T10:17:09;19.90;58.30
78876;DHT22;68253;52.506;5.486;2023-03-14T10:19:36;19.90;58.30
78876;DHT22;68253;52.506;5.486;2023-03-14T10:22:04;19.90;58.30
78876;DHT22;68253;52.506;5.486;2023-03-14T10:24:35;19.90;58.20
78876;DHT22;68253;52.506;5.486;2023-03-14T10:27:10;20.00;58.20
78876;DHT22;68253;52.506;5.486;2023-03-14T10:29:57;20.00;58.30
78876;DHT22;68253;52.506;5.486;2023-03-14T10:32:32;20.00;58.20
78876;DHT22;68253;52.506;5.486;2023-03-14T10:37:51;20.00;58.20
78876;DHT22;68253;52.506;5.486;2023-03-14T10:40:19;20.00;58.20
78876;DHT22;68253;52.506;5.486;2023-03-14T10:42:46;20.00;58.30
78876;DHT22;68253;52.506;5.486;2023-03-14T10:45:38;20.00;58.20
78876;DHT22;68253;52.506;5.486;2023-03-14T10:48:33;20.00;58.20
78876;DHT22;68253;52.506;5.486;2023-03-14T10:53:56;20.00;58.20
78876;DHT22;68253;52.506;5.486;2023-03-14T10:56:24;20.10;58.20
78876;DHT22;68253;52.506;5.486;2023-03-14T10:58:53;20.20;58.10
78876;DHT22;68253;52.506;5.486;2023-03-14T11:04:36;20.30;58.10
78876;DHT22;68253;52.506;5.486;2023-03-14T11:07:07;20.30;58.10
78876;DHT22;68253;52.506;5.486;2023-03-14T11:10:13;20.40;58.10
78876;DHT22;68253;52.506;5.486;2023-03-14T11:18:16;20.50;58.00
78876;DHT22;68253;52.506;5.486;2023-03-14T11:20:51;20.50;58.10
78876;DHT22;68253;52.506;5.486;2023-03-14T11:29:19;20.60;58.00
78876;DHT22;68253;52.506;5.486;2023-03-14T11:31:47;20.50;58.10
78876;DHT22;68253;52.506;5.486;2023-03-14T11:34:24;20.60;58.10
78876;DHT22;68253;52.506;5.486;2023-03-14T11:36:55;20.60;58.10
78876;DHT22;68253;52.506;5.486;2023-03-14T11:39:26;20.70;58.10
78876;DHT22;68253;52.506;5.486;2023-03-14T11:41:57;20.70;58.10
78876;DHT22;68253;52.506;5.486;2023-03-14T11:44:30;20.70;58.10
78876;DHT22;68253;52.506;5.486;2023-03-14T11:47:12;20.80;58.20
78876;DHT22;68253;52.506;5.486;2023-03-14T11:49:43;20.80;58.10
78876;DHT22;68253;52.506;5.486;2023-03-14T11:54:52;20.80;58.20
78876;DHT22;68253;52.506;5.486;2023-03-14T11:57:20;20.90;58.20
78876;DHT22;68253;52.506;5.486;2023-03-14T11:59:55;20.80;58.20
78876;DHT22;68253;52.506;5.486;2023-03-14T12:10:52;20.90;58.20
78876;DHT22;68253;52.506;5.486;2023-03-14T12:13:19;21.00;58.20
78876;DHT22;68253;52.506;5.486;2023-03-14T12:16:00;20.90;58.30
78876;DHT22;68253;52.506;5.486;2023-03-14T12:18:32;21.00;58.20
78876;DHT22;68253;52.506;5.486;2023-03-14T12:21:04;21.00;58.30
78876;DHT22;68253;52.506;5.486;2023-03-14T12:23:41;21.00;58.30
78876;DHT22;68253;52.506;5.486;2023-03-14T12:28:39;21.00;58.30
78876;DHT22;68253;52.506;5.486;2023-03-14T12:41:53;21.00;58.20
78876;DHT22;68253;52.506;5.486;2023-03-14T12:46:59;21.00;58.30
78876;DHT22;68253;52.506;5.486;2023-03-14T12:49:32;21.10;58.20
78876;DHT22;68253;52.506;5.486;2023-03-14T12:52:02;21.10;58.20
78876;DHT22;68253;52.506;5.486;2023-03-14T12:54:40;21.10;58.20
78876;DHT22;68253;52.506;5.486;2023-03-14T13:00:02;21.10;58.20
78876;DHT22;68253;52.506;5.486;2023-03-14T13:02:42;21.10;58.20
78876;DHT22;68253;52.506;5.486;2023-03-14T13:10:27;21.10;58.20
78876;DHT22;68253;52.506;5.486;2023-03-14T13:13:04;21.20;58.20
78876;DHT22;68253;52.506;5.486;2023-03-14T13:15:45;21.10;58.20
78876;DHT22;68253;52.506;5.486;2023-03-14T13:18:27;21.10;58.20
78876;DHT22;68253;52.506;5.486;2023-03-14T13:21:19;21.10;58.20
78876;DHT22;68253;52.506;5.486;2023-03-14T13:23:59;21.10;58.20
78876;DHT22;68253;52.506;5.486;2023-03-14T13:26:35;21.10;58.20
78876;DHT22;68253;52.506;5.486;2023-03-14T13:29:29;21.00;58.20
78876;DHT22;68253;52.506;5.486;2023-03-14T13:32:00;21.00;58.20
78876;DHT22;68253;52.506;5.486;2023-03-14T13:34:30;21.00;58.20
78876;DHT22;68253;52.506;5.486;2023-03-14T13:36:56;21.00;58.20
78876;DHT22;68253;52.506;5.486;2023-03-14T13:39:25;21.00;58.20
78876;DHT22;68253;52.506;5.486;2023-03-14T13:41:53;21.00;58.10
78876;DHT22;68253;52.506;5.486;2023-03-14T13:44:27;21.00;58.10
78876;DHT22;68253;52.506;5.486;2023-03-14T13:46:58;21.10;58.10
78876;DHT22;68253;52.506;5.486;2023-03-14T13:49:25;21.10;58.10
78876;DHT22;68253;52.506;5.486;2023-03-14T13:51:52;21.10;58.10
78876;DHT22;68253;52.506;5.486;2023-03-14T13:54:20;21.10;58.10
78876;DHT22;68253;52.506;5.486;2023-03-14T13:56:47;21.10;58.00
78876;DHT22;68253;52.506;5.486;2023-03-14T13:59:24;21.10;58.00
78876;DHT22;68253;52.506;5.486;2023-03-14T14:01:51;21.10;58.00
78876;DHT22;68253;52.506;5.486;2023-03-14T14:04:20;21.10;58.00
78876;DHT22;68253;52.506;5.486;2023-03-14T14:06:54;21.10;58.00
78876;DHT22;68253;52.506;5.486;2023-03-14T14:09:25;21.10;58.00
78876;DHT22;68253;52.506;5.486;2023-03-14T14:11:56;21.10;57.90
78876;DHT22;68253;52.506;5.486;2023-03-14T14:14:33;21.10;57.90
78876;DHT22;68253;52.506;5.486;2023-03-14T14:17:02;21.10;57.90
78876;DHT22;68253;52.506;5.486;2023-03-14T14:19:31;21.10;57.90
78876;DHT22;68253;52.506;5.486;2023-03-14T14:21:59;21.10;58.00
78876;DHT22;68253;52.506;5.486;2023-03-14T14:24:29;21.00;58.00
78876;DHT22;68253;52.506;5.486;2023-03-14T14:27:16;20.90;58.00
78876;DHT22;68253;52.506;5.486;2023-03-14T14:29:44;21.00;58.00
78876;DHT22;68253;52.506;5.486;2023-03-14T14:32:13;20.90;58.00
78876;DHT22;68253;52.506;5.486;2023-03-14T14:37:22;21.00;57.90
78876;DHT22;68253;52.506;5.486;2023-03-14T14:39:52;20.90;58.00
78876;DHT22;68253;52.506;5.486;2023-03-14T14:42:21;20.90;58.00
78876;DHT22;68253;52.506;5.486;2023-03-14T14:44:51;20.90;58.00
78876;DHT22;68253;52.506;5.486;2023-03-14T14:47:23;20.90;58.00
78876;DHT22;68253;52.506;5.486;2023-03-14T14:49:51;20.90;57.90
78876;DHT22;68253;52.506;5.486;2023-03-14T14:52:33;20.90;57.90
78876;DHT22;68253;52.506;5.486;2023-03-14T14:55:00;20.90;57.90
78876;DHT22;68253;52.506;5.486;2023-03-14T14:57:30;20.90;58.00
78876;DHT22;68253;52.506;5.486;2023-03-14T15:00:02;20.90;58.00
78876;DHT22;68253;52.506;5.486;2023-03-14T15:02:46;20.90;58.00
78876;DHT22;68253;52.506;5.486;2023-03-14T15:05:20;20.90;58.20
78876;DHT22;68253;52.506;5.486;2023-03-14T15:07:47;20.90;58.40
78876;DHT22;68253;52.506;5.486;2023-03-14T15:10:18;20.90;58.40
78876;DHT22;68253;52.506;5.486;2023-03-14T15:12:44;20.90;58.40
78876;DHT22;68253;52.506;5.486;2023-03-14T15:15:11;20.90;58.30
78876;DHT22;68253;52.506;5.486;2023-03-14T15:17:38;20.90;58.30
78876;DHT22;68253;52.506;5.486;2023-03-14T15:20:06;20.90;58.30
78876;DHT22;68253;52.506;5.486;2023-03-14T15:22:32;20.90;58.20
78876;DHT22;68253;52.506;5.486;2023-03-14T15:24:59;20.90;58.20
78876;DHT22;68253;52.506;5.486;2023-03-14T15:27:25;20.90;58.20
78876;DHT22;68253;52.506;5.486;2023-03-14T15:29:51;20.80;58.10
78876;DHT22;68253;52.506;5.486;2023-03-14T15:32:17;20.80;58.10
78876;DHT22;68253;52.506;5.486;2023-03-14T15:34:44;20.80;58.10
78876;DHT22;68253;52.506;5.486;2023-03-14T15:37:15;20.80;58.10
78876;DHT22;68253;52.506;5.486;2023-03-14T15:39:45;20.80;58.00
78876;DHT22;68253;52.506;5.486;2023-03-14T15:42:11;20.70;58.00
78876;DHT22;68253;52.506;5.486;2023-03-14T15:44:37;20.70;58.00
78876;DHT22;68253;52.506;5.486;2023-03-14T15:47:05;20.70;58.00
78876;DHT22;68253;52.506;5.486;2023-03-14T15:49:32;20.70;58.10
78876;DHT22;68253;52.506;5.486;2023-03-14T15:51:58;20.70;58.10
78876;DHT22;68253;52.506;5.486;2023-03-14T15:54:25;20.70;58.20
78876;DHT22;68253;52.506;5.486;2023-03-14T15:56:57;20.70;58.30
78876;DHT22;68253;52.506;5.486;2023-03-14T15:59:24;20.70;58.30
78876;DHT22;68253;52.506;5.486;2023-03-14T16:01:50;20.70;58.40
78876;DHT22;68253;52.506;5.486;2023-03-14T16:04:17;20.70;58.50
78876;DHT22;68253;52.506;5.486;2023-03-14T16:06:44;20.70;58.60
78876;DHT22;68253;52.506;5.486;2023-03-14T16:09:11;20.70;58.70
78876;DHT22;68253;52.506;5.486;2023-03-14T16:11:37;20.70;58.70
78876;DHT22;68253;52.506;5.486;2023-03-14T16:14:03;20.60;58.70
78876;DHT22;68253;52.506;5.486;2023-03-14T16:16:29;20.60;58.70
78876;DHT22;68253;52.506;5.486;2023-03-14T16:18:56;20.60;58.70
78876;DHT22;68253;52.506;5.486;2023-03-14T16:21:22;20.60;58.70
78876;DHT22;68253;52.506;5.486;2023-03-14T16:23:48;20.60;58.70
78876;DHT22;68253;52.506;5.486;2023-03-14T16:26:16;20.60;58.70
78876;DHT22;68253;52.506;5.486;2023-03-14T16:28:44;20.60;58.60
78876;DHT22;68253;52.506;5.486;2023-03-14T16:31:16;20.50;58.70
78876;DHT22;68253;52.506;5.486;2023-03-14T16:33:43;20.50;58.60
78876;DHT22;68253;52.506;5.486;2023-03-14T16:36:11;20.50;58.60
78876;DHT22;68253;52.506;5.486;2023-03-14T16:38:39;20.50;58.60
78876;DHT22;68253;52.506;5.486;2023-03-14T16:41:15;20.50;58.60
78876;DHT22;68253;52.506;5.486;2023-03-14T16:43:42;20.50;58.60
78876;DHT22;68253;52.506;5.486;2023-03-14T16:46:14;20.50;58.60
78876;DHT22;68253;52.506;5.486;2023-03-14T16:48:44;20.50;58.60
78876;DHT22;68253;52.506;5.486;2023-03-14T16:51:10;20.40;58.60
78876;DHT22;68253;52.506;5.486;2023-03-14T16:53:36;20.40;58.50
78876;DHT22;68253;52.506;5.486;2023-03-14T16:56:03;20.40;58.50
78876;DHT22;68253;52.506;5.486;2023-03-14T16:58:29;20.30;58.40
78876;DHT22;68253;52.506;5.486;2023-03-14T17:00:56;20.30;58.40